Alexander Maersk — OZRC2 — position and weather

sailwx.info

Track history (hours):
 
Tides and Currents Weather Stations Pressure Air Temp Water Temp Dewpoint Dewpoint Depression Visibility Wind Speed Wind Dir Waves Ship Positions

Alexander Maersk

Last reported at 2015-Jul-02 11:31 UTC. Time now 2015-Jul-03 15:34 UTC.
Position N 32°43' E 014°21'.

Length 155 m; draft 6.3 m.

Type: Ship. MMSI: 219470000.

Date/timePositionNaut miles runAvg speedWind from/ knotsBaromVisibWave heightAir tempDewpointWater temp
2015-Jul-02 11:31N 32°43' E 014°21'0 0.1
2015-Jul-02 08:31N 32°43' E 014°21'0 0.0
2015-Jul-02 07:25N 32°43' E 014°22'0 0.0
2015-Jul-01 17:28N 32°43' E 014°21'0 0.0
2015-Jul-01 16:13N 32°43' E 014°21'0 0.0
2015-Jul-01 14:19N 32°43' E 014°21'0 0.0
2015-Jun-30 17:28N 32°43' E 014°21'0 0.0
2015-Jun-30 16:28N 32°43' E 014°21'0 0.1
2015-Jun-30 15:25N 32°43' E 014°21'0 0.0
2015-Jun-30 14:28N 32°43' E 014°21'0 0.0
2015-Jun-30 11:25N 32°43' E 014°21'0 0.0
2015-Jun-30 09:19N 32°43' E 014°21'0 0.1
2015-Jun-30 08:19N 32°43' E 014°22'36 6.1
2015-Jun-30 02:29N 32°31' E 015°02'1314.0
2015-Jun-30 01:33N 32°24' E 015°15'2 0.5
2015-Jun-29 20:07N 32°22' E 015°13'0 0.0
2015-Jun-29 19:28N 32°22' E 015°13'0 0.0
2015-Jun-29 17:19N 32°22' E 015°13'0 0.0
2015-Jun-29 16:25N 32°22' E 015°13'0 0.0
2015-Jun-28 22:25N 32°22' E 015°13'  
2015-Jun-26 10:32N 32°22' E 015°15'65 5.4
2015-Jun-25 22:31N 33°27' E 015°04'21 8.8
2015-Jun-25 20:04N 33°48' E 015°00'4 8.3
2015-Jun-25 19:32N 33°52' E 014°59'37 8.2
2015-Jun-25 15:05N 34°28' E 014°52'4 8.3
2015-Jun-25 14:33N 34°33' E 014°51'8 8.3
2015-Jun-25 13:33N 34°41' E 014°49'9 8.7
2015-Jun-25 12:33N 34°49' E 014°47'9 8.7
2015-Jun-25 11:33N 34°58' E 014°46'9 8.9
2015-Jun-25 10:33N 35°07' E 014°43'9 8.8
2015-Jun-25 09:33N 35°15' E 014°41'9 8.7
2015-Jun-25 08:33N 35°24' E 014°39'9 9.2
2015-Jun-25 07:32N 35°33' E 014°38'9 9.4
2015-Jun-25 06:33N 35°42' E 014°35'8 7.5
2015-Jun-25 05:32N 35°49' E 014°33'0 0.1
2015-Jun-25 03:33N 35°49' E 014°33'0 0.0
2015-Jun-25 02:33N 35°49' E 014°33'0 0.0
2015-Jun-25 01:33N 35°49' E 014°33'0 0.0
2015-Jun-25 00:30N 35°49' E 014°33'0 0.0
2015-Jun-24 23:30N 35°49' E 014°33'0 0.0
2015-Jun-24 22:33N 35°49' E 014°33'0 0.0
2015-Jun-24 21:33N 35°49' E 014°33'0 0.0
2015-Jun-24 20:33N 35°49' E 014°33'0 0.0
2015-Jun-24 19:24N 35°49' E 014°33'0 0.0
2015-Jun-24 18:33N 35°49' E 014°33'0 0.0
2015-Jun-24 17:30N 35°49' E 014°33'0 0.0
2015-Jun-24 16:24N 35°49' E 014°33'0 0.0
2015-Jun-24 15:33N 35°49' E 014°33'0 0.0
2015-Jun-24 14:30N 35°49' E 014°33'0 0.0
2015-Jun-24 13:33N 35°49' E 014°33'0 0.0
2015-Jun-24 11:24N 35°49' E 014°33'0 0.0
2015-Jun-24 09:21N 35°49' E 014°33'0 0.1
2015-Jun-24 07:34N 35°49' E 014°33'7 6.6
2015-Jun-24 06:33N 35°52' E 014°41'0 0.1
2015-Jun-24 05:33N 35°52' E 014°41'0 0.0
2015-Jun-24 04:33N 35°52' E 014°41'0 0.1
2015-Jun-24 03:33N 35°52' E 014°41'0 0.1
2015-Jun-24 02:30N 35°52' E 014°41'0 0.0
2015-Jun-24 01:27N 35°52' E 014°41'0 0.1
2015-Jun-24 00:33N 35°52' E 014°41'0 0.1
2015-Jun-23 23:33N 35°52' E 014°41'0 0.0
2015-Jun-23 22:33N 35°52' E 014°41'0 0.0
2015-Jun-23 21:33N 35°52' E 014°41'0 0.0
2015-Jun-23 20:33N 35°52' E 014°41'0 0.0
2015-Jun-23 19:33N 35°52' E 014°41'0 0.0
2015-Jun-23 19:03N 35°52' E 014°41'0 0.0
2015-Jun-22 19:27N 35°51' E 014°41'0 0.1
2015-Jun-22 18:33N 35°51' E 014°41'0 0.0
2015-Jun-22 17:33N 35°51' E 014°41'0 0.0
2015-Jun-22 16:33N 35°51' E 014°41'0 0.0
2015-Jun-22 15:33N 35°51' E 014°41'0 0.0
2015-Jun-22 14:33N 35°51' E 014°41'0 0.0
2015-Jun-22 13:30N 35°51' E 014°41'0 0.0
2015-Jun-22 12:15N 35°51' E 014°41'  
Track history (hours):
 
Tides and Currents Weather Stations Pressure Air Temp Water Temp Dewpoint Dewpoint Depression Visibility Wind Speed Wind Dir Waves Ship Positions

Alexander Maersk

Last reported at 2015-Jul-02 11:31 UTC. Time now 2015-Jul-03 15:34 UTC.
Position N 32°43' E 014°21'.

Length 155 m; draft 6.3 m.

Type: Ship. MMSI: 219470000.

Date/timePositionNaut miles runAvg speedWind from/ knotsBaromVisibWave heightAir tempDewpointWater temp
2015-Jul-02 11:31N 32°43' E 014°21'0 0.1
2015-Jul-02 08:31N 32°43' E 014°21'0 0.0
2015-Jul-02 07:25N 32°43' E 014°22'0 0.0
2015-Jul-01 17:28N 32°43' E 014°21'0 0.0
2015-Jul-01 16:13N 32°43' E 014°21'0 0.0
2015-Jul-01 14:19N 32°43' E 014°21'0 0.0
2015-Jun-30 17:28N 32°43' E 014°21'0 0.0
2015-Jun-30 16:28N 32°43' E 014°21'0 0.1
2015-Jun-30 15:25N 32°43' E 014°21'0 0.0
2015-Jun-30 14:28N 32°43' E 014°21'0 0.0
2015-Jun-30 11:25N 32°43' E 014°21'0 0.0
2015-Jun-30 09:19N 32°43' E 014°21'0 0.1
2015-Jun-30 08:19N 32°43' E 014°22'36 6.1
2015-Jun-30 02:29N 32°31' E 015°02'1314.0
2015-Jun-30 01:33N 32°24' E 015°15'2 0.5
2015-Jun-29 20:07N 32°22' E 015°13'0 0.0
2015-Jun-29 19:28N 32°22' E 015°13'0 0.0
2015-Jun-29 17:19N 32°22' E 015°13'0 0.0
2015-Jun-29 16:25N 32°22' E 015°13'0 0.0
2015-Jun-28 22:25N 32°22' E 015°13'  
2015-Jun-26 10:32N 32°22' E 015°15'65 5.4
2015-Jun-25 22:31N 33°27' E 015°04'21 8.8
2015-Jun-25 20:04N 33°48' E 015°00'4 8.3
2015-Jun-25 19:32N 33°52' E 014°59'37 8.2
2015-Jun-25 15:05N 34°28' E 014°52'4 8.3
2015-Jun-25 14:33N 34°33' E 014°51'8 8.3
2015-Jun-25 13:33N 34°41' E 014°49'9 8.7
2015-Jun-25 12:33N 34°49' E 014°47'9 8.7
2015-Jun-25 11:33N 34°58' E 014°46'9 8.9
2015-Jun-25 10:33N 35°07' E 014°43'9 8.8
2015-Jun-25 09:33N 35°15' E 014°41'9 8.7
2015-Jun-25 08:33N 35°24' E 014°39'9 9.2
2015-Jun-25 07:32N 35°33' E 014°38'9 9.4
2015-Jun-25 06:33N 35°42' E 014°35'8 7.5
2015-Jun-25 05:32N 35°49' E 014°33'0 0.1
2015-Jun-25 03:33N 35°49' E 014°33'0 0.0
2015-Jun-25 02:33N 35°49' E 014°33'0 0.0
2015-Jun-25 01:33N 35°49' E 014°33'0 0.0
2015-Jun-25 00:30N 35°49' E 014°33'0 0.0
2015-Jun-24 23:30N 35°49' E 014°33'0 0.0
2015-Jun-24 22:33N 35°49' E 014°33'0 0.0
2015-Jun-24 21:33N 35°49' E 014°33'0 0.0
2015-Jun-24 20:33N 35°49' E 014°33'0 0.0
2015-Jun-24 19:24N 35°49' E 014°33'0 0.0
2015-Jun-24 18:33N 35°49' E 014°33'0 0.0
2015-Jun-24 17:30N 35°49' E 014°33'0 0.0
2015-Jun-24 16:24N 35°49' E 014°33'0 0.0
2015-Jun-24 15:33N 35°49' E 014°33'0 0.0
2015-Jun-24 14:30N 35°49' E 014°33'0 0.0
2015-Jun-24 13:33N 35°49' E 014°33'0 0.0
2015-Jun-24 11:24N 35°49' E 014°33'0 0.0
2015-Jun-24 09:21N 35°49' E 014°33'0 0.1
2015-Jun-24 07:34N 35°49' E 014°33'7 6.6
2015-Jun-24 06:33N 35°52' E 014°41'0 0.1
2015-Jun-24 05:33N 35°52' E 014°41'0 0.0
2015-Jun-24 04:33N 35°52' E 014°41'0 0.1
2015-Jun-24 03:33N 35°52' E 014°41'0 0.1
2015-Jun-24 02:30N 35°52' E 014°41'0 0.0
2015-Jun-24 01:27N 35°52' E 014°41'0 0.1
2015-Jun-24 00:33N 35°52' E 014°41'0 0.1
2015-Jun-23 23:33N 35°52' E 014°41'0 0.0
2015-Jun-23 22:33N 35°52' E 014°41'0 0.0
2015-Jun-23 21:33N 35°52' E 014°41'0 0.0
2015-Jun-23 20:33N 35°52' E 014°41'0 0.0
2015-Jun-23 19:33N 35°52' E 014°41'0 0.0
2015-Jun-23 19:03N 35°52' E 014°41'0 0.0
2015-Jun-22 19:27N 35°51' E 014°41'0 0.1
2015-Jun-22 18:33N 35°51' E 014°41'0 0.0
2015-Jun-22 17:33N 35°51' E 014°41'0 0.0
2015-Jun-22 16:33N 35°51' E 014°41'0 0.0
2015-Jun-22 15:33N 35°51' E 014°41'0 0.0
2015-Jun-22 14:33N 35°51' E 014°41'0 0.0
2015-Jun-22 13:30N 35°51' E 014°41'0 0.0
2015-Jun-22 12:15N 35°51' E 014°41'  

Dump ship's entire track history